Time;durP1;ratioP1;P1;durP2;ratioP2;P2;SDS_P1;SDS_P2;PMS_P1;PMS_P2;Temp;Humidity;BMP_temperature;BMP_pressure;BME280_temperature;BME280_humidity;BME280_pressure;Samples;Min_cycle;Max_cycle;Signal;HPM_P1;HPM_P2
2023/10/25 00:00:10;;;;;;;20.52;13.25;;;;;;;8.96;100.00;99300.94;5041992;28;20445;-75
2023/10/25 00:02:38;;;;;;;16.35;12.43;;;;;;;8.98;100.00;99306.97;5054624;28;20053;-77
2023/10/25 00:05:07;;;;;;;18.70;12.38;;;;;;;8.99;100.00;99300.75;5053531;28;20065;-76
2023/10/25 00:07:35;;;;;;;17.52;13.55;;;;;;;8.90;100.00;99288.09;5063423;28;20501;-75
2023/10/25 00:10:07;;;;;;;18.30;13.57;;;;;;;8.89;100.00;99292.50;5062398;28;20410;-75
2023/10/25 00:12:35;;;;;;;20.63;14.77;;;;;;;8.88;100.00;99290.81;5071799;28;20063;-77
2023/10/25 00:15:05;;;;;;;21.85;14.65;;;;;;;8.84;100.00;99286.63;5064851;28;20522;-74
2023/10/25 00:17:33;;;;;;;21.98;14.48;;;;;;;8.84;100.00;99306.91;5068263;28;20151;-75
2023/10/25 00:20:02;;;;;;;19.73;13.93;;;;;;;8.81;100.00;99297.41;5049198;28;20409;-75
2023/10/25 00:22:30;;;;;;;17.85;13.68;;;;;;;8.83;100.00;99305.19;5074180;28;20045;-74
2023/10/25 00:24:58;;;;;;;18.63;13.95;;;;;;;8.76;100.00;99300.28;5063652;28;20124;-75
2023/10/25 00:27:28;;;;;;;17.60;13.85;;;;;;;8.84;100.00;99301.63;5071344;28;20074;-75
2023/10/25 00:29:56;;;;;;;18.50;13.05;;;;;;;8.87;100.00;99301.47;5071939;28;20440;-75
2023/10/25 00:32:24;;;;;;;18.58;13.02;;;;;;;8.93;100.00;99290.56;5070322;28;20064;-74
2023/10/25 00:34:53;;;;;;;17.35;13.00;;;;;;;8.96;100.00;99299.16;5073068;28;20045;-75
2023/10/25 00:37:24;;;;;;;18.77;13.65;;;;;;;8.92;100.00;99289.72;5069688;28;20046;-76
2023/10/25 00:39:56;;;;;;;17.00;13.57;;;;;;;8.96;100.00;99290.38;5066272;28;20123;-75
2023/10/25 00:42:25;;;;;;;20.08;14.40;;;;;;;8.93;100.00;99306.41;5053267;28;20045;-76
2023/10/25 00:44:56;;;;;;;23.00;15.50;;;;;;;8.92;100.00;99309.97;5051671;28;20044;-76
2023/10/25 00:47:24;;;;;;;20.65;14.52;;;;;;;8.89;100.00;99297.78;5064389;28;20633;-75
2023/10/25 00:49:53;;;;;;;22.48;15.68;;;;;;;8.90;100.00;99309.22;5026159;28;20056;-75
2023/10/25 00:52:23;;;;;;;21.08;15.20;;;;;;;8.90;100.00;99303.94;5034908;28;20041;-75
2023/10/25 00:54:52;;;;;;;21.98;15.38;;;;;;;8.88;100.00;99301.38;5069627;28;20032;-75
2023/10/25 00:57:20;;;;;;;23.98;15.95;;;;;;;8.87;100.00;99298.81;5068784;28;20057;-76
2023/10/25 00:59:51;;;;;;;24.10;15.82;;;;;;;8.85;100.00;99293.63;5060565;28;20107;-75
2023/10/25 01:02:21;;;;;;;26.02;16.80;;;;;;;8.84;100.00;99297.19;5057854;28;20045;-76
2023/10/25 01:04:51;;;;;;;24.50;16.65;;;;;;;8.81;100.00;99283.34;5066158;28;20066;-76
2023/10/25 01:07:21;;;;;;;21.15;16.25;;;;;;;8.83;100.00;99302.56;5050190;28;20045;-76
2023/10/25 01:09:49;;;;;;;25.42;16.73;;;;;;;8.78;100.00;99287.00;5059536;28;20048;-75
2023/10/25 01:12:20;;;;;;;22.38;15.73;;;;;;;8.79;100.00;99278.16;5062814;28;20037;-75
2023/10/25 01:14:50;;;;;;;21.95;15.85;;;;;;;8.78;100.00;99273.81;5062489;28;20102;-75
2023/10/25 01:17:18;;;;;;;23.10;16.45;;;;;;;8.78;100.00;99281.72;5067194;28;20044;-74
2023/10/25 01:19:51;;;;;;;24.42;16.45;;;;;;;8.78;100.00;99272.03;5057161;28;20111;-74
2023/10/25 01:22:20;;;;;;;25.23;17.33;;;;;;;8.81;100.00;99270.16;5047796;28;20040;-76
2023/10/25 01:24:51;;;;;;;27.40;18.15;;;;;;;8.84;100.00;99259.38;5051819;28;21642;-76
2023/10/25 01:27:21;;;;;;;28.73;19.77;;;;;;;8.88;100.00;99266.19;5068879;28;20110;-75
2023/10/25 01:29:49;;;;;;;30.52;19.75;;;;;;;8.90;100.00;99274.88;5059021;28;20044;-74
2023/10/25 01:32:18;;;;;;;29.00;19.67;;;;;;;8.93;100.00;99280.00;5053892;28;20045;-76
2023/10/25 01:34:47;;;;;;;32.47;21.10;;;;;;;8.94;100.00;99272.00;5062338;28;20048;-74
2023/10/25 01:37:16;;;;;;;37.55;22.63;;;;;;;8.94;100.00;99268.50;5066110;28;20051;-75
2023/10/25 01:39:44;;;;;;;37.88;24.83;;;;;;;8.96;100.00;99275.41;5056711;28;20143;-77
2023/10/25 01:42:15;;;;;;;41.95;25.55;;;;;;;8.96;100.00;99274.53;5064697;28;20111;-76
2023/10/25 01:44:45;;;;;;;39.53;24.35;;;;;;;8.91;100.00;99272.16;5066001;28;20048;-76
2023/10/25 01:47:13;;;;;;;36.40;22.88;;;;;;;8.88;100.00;99272.34;5063064;28;20052;-76
2023/10/25 01:49:43;;;;;;;36.80;23.30;;;;;;;8.90;100.00;99281.03;5072120;28;20032;-76
2023/10/25 01:52:13;;;;;;;35.42;23.00;;;;;;;8.87;100.00;99275.91;5050860;28;20063;-76
2023/10/25 01:54:45;;;;;;;36.83;23.02;;;;;;;8.90;100.00;99288.09;5067306;28;20044;-77
2023/10/25 01:57:15;;;;;;;38.22;23.50;;;;;;;8.89;100.00;99287.25;5078925;28;20065;-77
2023/10/25 01:59:44;;;;;;;37.78;23.38;;;;;;;8.86;100.00;99286.56;5057303;28;20052;-77
2023/10/25 02:02:13;;;;;;;38.97;23.73;;;;;;;8.88;100.00;99272.34;5066536;28;20036;-76
2023/10/25 02:04:42;;;;;;;38.17;24.08;;;;;;;8.92;100.00;99270.38;5045896;28;20095;-76
2023/10/25 02:07:11;;;;;;;38.20;23.77;;;;;;;8.88;100.00;99272.34;5044712;28;20247;-76
2023/10/25 02:09:42;;;;;;;41.13;23.17;;;;;;;8.86;100.00;99265.44;5044070;28;20509;-77
2023/10/25 02:12:11;;;;;;;42.08;24.05;;;;;;;8.82;100.00;99261.25;5034480;28;20048;-77
2023/10/25 02:14:43;;;;;;;42.95;24.83;;;;;;;8.74;100.00;99259.94;5048324;28;20040;-77
2023/10/25 02:17:12;;;;;;;41.08;24.92;;;;;;;8.66;100.00;99254.22;5066255;28;20048;-77
2023/10/25 02:19:41;;;;;;;42.00;24.05;;;;;;;8.72;100.00;99258.31;5069160;28;20041;-76
2023/10/25 02:22:09;;;;;;;44.67;25.27;;;;;;;8.68;100.00;99257.63;5050891;28;20041;-77
2023/10/25 02:24:37;;;;;;;37.88;22.50;;;;;;;8.71;100.00;99264.53;5051990;28;20346;-76
2023/10/25 02:27:06;;;;;;;35.53;21.70;;;;;;;8.68;100.00;99260.28;5067075;28;20148;-77
2023/10/25 02:29:34;;;;;;;46.70;24.80;;;;;;;8.71;100.00;99261.88;5060445;28;20545;-77
2023/10/25 02:32:07;;;;;;;39.80;25.17;;;;;;;8.66;100.00;99235.75;5071271;28;20508;-77
2023/10/25 02:34:36;;;;;;;45.08;25.23;;;;;;;8.73;100.00;99252.94;5049259;28;20919;-77
2023/10/25 02:37:08;;;;;;;48.13;26.98;;;;;;;8.74;100.00;99248.53;5066923;28;20048;-77
2023/10/25 02:39:37;;;;;;;45.20;26.75;;;;;;;8.69;100.00;99238.22;5060332;28;20397;-76
2023/10/25 02:42:06;;;;;;;45.88;25.63;;;;;;;8.71;100.00;99241.63;5068108;28;20625;-76
2023/10/25 02:44:35;;;;;;;53.20;27.10;;;;;;;8.70;100.00;99236.44;5072240;28;20130;-77
2023/10/25 02:47:05;;;;;;;45.83;25.48;;;;;;;8.67;100.00;99234.81;5069462;28;20068;-76
2023/10/25 02:49:34;;;;;;;42.00;24.58;;;;;;;8.61;100.00;99206.16;5058185;28;20044;-77
2023/10/25 02:52:02;;;;;;;45.50;24.88;;;;;;;8.67;100.00;99226.06;5052598;28;20547;-77
2023/10/25 02:54:33;;;;;;;45.67;25.50;;;;;;;8.61;100.00;99221.16;5068474;28;20119;-76
2023/10/25 02:57:01;;;;;;;46.08;25.13;;;;;;;8.65;100.00;99234.09;5051858;28;20052;-77
2023/10/25 02:59:31;;;;;;;44.85;25.42;;;;;;;8.67;100.00;99220.78;5061663;28;20090;-75
2023/10/25 03:01:59;;;;;;;44.80;24.58;;;;;;;8.59;100.00;99199.28;5071773;28;20090;-76
2023/10/25 03:04:29;;;;;;;42.90;24.08;;;;;;;8.62;100.00;99205.22;5070383;28;20048;-76
2023/10/25 03:06:57;;;;;;;45.92;25.08;;;;;;;8.64;100.00;99210.41;5064783;28;20044;-77
2023/10/25 03:09:25;;;;;;;46.42;24.77;;;;;;;8.59;100.00;99202.75;5064362;28;20056;-77
2023/10/25 03:11:54;;;;;;;45.13;25.60;;;;;;;8.62;100.00;99215.78;5069149;28;20059;-77
2023/10/25 03:14:22;;;;;;;45.17;25.55;;;;;;;8.59;100.00;99213.31;5068433;28;20033;-76
2023/10/25 03:16:52;;;;;;;48.47;26.10;;;;;;;8.52;100.00;99198.75;5071992;28;20051;-76
2023/10/25 03:19:20;;;;;;;44.38;24.40;;;;;;;8.52;100.00;99204.03;5062766;28;20053;-76
2023/10/25 03:21:51;;;;;;;40.72;22.85;;;;;;;8.51;100.00;99202.34;5064858;28;20045;-77
2023/10/25 03:24:20;;;;;;;41.60;23.88;;;;;;;8.47;100.00;99199.97;5052769;28;20124;-76
2023/10/25 03:26:53;;;;;;;43.08;24.13;;;;;;;8.50;100.00;99200.63;5057007;28;20064;-76
2023/10/25 03:29:21;;;;;;;44.95;25.65;;;;;;;8.54;100.00;99210.06;5069833;28;20179;-76
2023/10/25 03:31:50;;;;;;;55.28;27.10;;;;;;;8.56;100.00;99202.94;5071575;28;20139;-77
2023/10/25 03:34:19;;;;;;;53.67;27.77;;;;;;;8.59;100.00;99213.31;5074712;28;20075;-76
2023/10/25 03:36:47;;;;;;;55.72;28.17;;;;;;;8.61;100.00;99205.31;5077696;28;20041;-76
2023/10/25 03:39:18;;;;;;;56.38;26.83;;;;;;;8.64;100.00;99210.41;5066368;28;20055;-75
2023/10/25 03:41:46;;;;;;;51.28;26.65;;;;;;;8.68;100.00;99207.50;5075157;28;20052;-77
2023/10/25 03:44:15;;;;;;;50.08;26.35;;;;;;;8.73;100.00;99200.16;5089863;28;20061;-78
2023/10/25 03:46:44;;;;;;;48.22;25.27;;;;;;;8.84;100.00;99203.94;5072981;28;20044;-76
2023/10/25 03:49:12;;;;;;;50.47;25.65;;;;;;;8.91;100.00;99203.53;5062317;28;20101;-76
2023/10/25 03:51:40;;;;;;;49.03;26.13;;;;;;;8.98;100.00;99201.34;5063776;28;20139;-77
2023/10/25 03:54:11;;;;;;;46.10;25.27;;;;;;;8.90;100.00;99179.84;5068631;28;20905;-77
2023/10/25 03:56:42;;;;;;;45.85;23.90;;;;;;;9.02;100.00;99202.88;5063178;28;20040;-75
2023/10/25 03:59:11;;;;;;;;;;;;;;;8.94;100.00;99203.34;5080152;28;20075;-76
2023/10/25 04:01:39;;;;;;;40.03;22.08;;;;;;;8.79;100.00;99194.53;5061003;28;19964;-77
2023/10/25 04:04:09;;;;;;;30.70;19.23;;;;;;;8.67;100.00;99200.50;5065027;28;20048;-76
2023/10/25 04:06:39;;;;;;;53.90;22.10;;;;;;;8.61;100.00;99185.06;5062769;28;20109;-77
2023/10/25 04:09:08;;;;;;;37.45;21.02;;;;;;;8.52;100.00;99168.88;5068258;28;20067;-76
2023/10/25 04:11:39;;;;;;;36.35;20.02;;;;;;;8.54;100.00;99180.19;5058810;28;20097;-76
2023/10/25 04:14:08;;;;;;;44.40;20.63;;;;;;;8.58;100.00;99172.03;5052976;28;20079;-76
2023/10/25 04:16:37;;;;;;;36.92;21.05;;;;;;;8.62;100.00;99170.06;5083086;28;20037;-76
2023/10/25 04:19:06;;;;;;;32.70;19.95;;;;;;;8.67;100.00;99168.84;5066040;28;20083;-77
2023/10/25 04:21:41;;;;;;;35.20;19.95;;;;;;;8.60;100.00;99150.84;5069532;28;20040;-76
2023/10/25 04:24:11;;;;;;;34.70;18.90;;;;;;;8.70;100.00;99154.63;5052428;28;20178;-77
2023/10/25 04:26:39;;;;;;;34.65;19.98;;;;;;;8.63;100.00;99154.16;5068452;28;20044;-76
2023/10/25 04:29:10;;;;;;;30.55;18.58;;;;;;;8.59;100.00;99159.69;5046873;28;20053;-76
2023/10/25 04:31:38;;;;;;;41.10;21.60;;;;;;;8.61;100.00;99155.19;5062895;28;20045;-77
2023/10/25 04:34:09;;;;;;;45.78;21.48;;;;;;;8.60;100.00;99153.47;5068659;28;20055;-77
2023/10/25 04:36:39;;;;;;;35.55;20.83;;;;;;;8.56;100.00;99146.66;5073384;28;20047;-76
2023/10/25 04:39:09;;;;;;;38.65;21.17;;;;;;;8.58;100.00;99145.66;5073767;28;20058;-77
2023/10/25 04:41:38;;;;;;;46.65;21.67;;;;;;;8.59;100.00;99139.44;5075340;28;20112;-76
2023/10/25 04:44:09;;;;;;;48.95;21.42;;;;;;;8.57;100.00;99136.03;5069225;28;21068;-77
2023/10/25 04:46:39;;;;;;;37.83;20.63;;;;;;;8.50;100.00;99118.84;5070308;28;20047;-77
2023/10/25 04:49:11;;;;;;;42.17;21.75;;;;;;;8.57;100.00;99130.75;5067709;28;20378;-76
2023/10/25 04:51:43;;;;;;;38.60;20.77;;;;;;;8.39;100.00;99094.88;5062488;28;20328;-77
2023/10/25 04:54:11;;;;;;;41.38;22.17;;;;;;;8.62;100.00;99120.78;5069764;28;20591;-77
2023/10/25 04:56:39;;;;;;;44.08;21.90;;;;;;;8.62;100.00;99112.88;5045290;28;20131;-77
2023/10/25 04:59:07;;;;;;;35.30;20.08;;;;;;;8.67;100.00;99115.22;5070615;28;20056;-77
2023/10/25 05:01:36;;;;;;;37.45;20.23;;;;;;;8.63;100.00;99111.94;5063210;28;21071;-76
2023/10/25 05:04:06;;;;;;;41.08;21.00;;;;;;;8.57;100.00;99114.06;5059221;28;20048;-77
2023/10/25 05:06:34;;;;;;;47.28;21.92;;;;;;;8.57;100.00;99120.19;5080694;28;20037;-77
2023/10/25 05:09:05;;;;;;;49.45;21.52;;;;;;;8.57;100.00;99120.19;5070985;28;20104;-77
2023/10/25 05:11:35;;;;;;;44.40;22.17;;;;;;;8.51;100.00;99114.41;5061817;28;20497;-75
2023/10/25 05:14:07;;;;;;;49.65;23.05;;;;;;;8.54;100.00;99117.72;5054948;28;20102;-77
2023/10/25 05:16:37;;;;;;;81.82;24.80;;;;;;;8.51;100.00;99109.13;5064442;28;20063;-77
2023/10/25 05:19:09;;;;;;;57.60;24.23;;;;;;;8.46;100.00;99106.78;5063763;28;20060;-77
2023/10/25 05:21:42;;;;;;;69.53;24.42;;;;;;;8.43;100.00;99099.91;5039646;28;20416;-77
2023/10/25 05:24:12;;;;;;;53.72;24.15;;;;;;;8.50;100.00;99104.84;5064656;28;20090;-77
2023/10/25 05:26:41;;;;;;;54.38;22.65;;;;;;;8.53;100.00;99108.13;5059386;28;20128;-77
2023/10/25 05:29:09;;;;;;;45.78;22.65;;;;;;;8.54;100.00;99098.41;5080370;28;20420;-77
2023/10/25 05:31:42;;;;;;;49.80;23.73;;;;;;;8.50;100.00;99094.28;5056324;28;20104;-77
2023/10/25 05:34:13;;;;;;;48.55;23.67;;;;;;;8.53;100.00;99073.81;5070096;28;20127;-77
2023/10/25 05:36:41;;;;;;;52.80;23.05;;;;;;;8.68;100.00;99090.53;5059483;28;20059;-77
2023/10/25 05:39:10;;;;;;;52.92;23.58;;;;;;;8.62;100.00;99070.66;5069263;28;20037;-77
2023/10/25 05:41:41;;;;;;;52.38;23.17;;;;;;;8.83;100.00;99096.66;5055160;28;20051;-76
2023/10/25 05:44:14;;;;;;;50.05;23.88;;;;;;;8.91;100.00;99097.06;5061825;28;20045;-77
2023/10/25 05:46:44;;;;;;;47.13;22.90;;;;;;;8.97;100.00;99091.44;5045795;28;20045;-77
2023/10/25 05:49:17;;;;;;;49.70;23.67;;;;;;;8.97;100.00;99092.25;5068198;28;20040;-78
2023/10/25 05:51:45;;;;;;;;;;;;;;;8.93;100.00;99080.19;5057583;28;20087;-76
2023/10/25 05:54:14;;;;;;;47.97;23.05;;;;;;;9.02;100.00;99094.63;5064386;28;19956;-75
2023/10/25 05:56:43;;;;;;;42.45;22.05;;;;;;;9.17;100.00;99098.94;5060035;28;20045;-76
2023/10/25 05:59:11;;;;;;;39.88;20.08;;;;;;;9.48;100.00;99096.09;5073493;28;20040;-75
2023/10/25 06:01:49;;;;;;;32.80;19.60;;;;;;;9.46;100.00;99097.13;5054346;28;20049;-75
2023/10/25 06:04:22;;;;;;;31.02;18.02;;;;;;;9.33;100.00;99089.13;5069128;28;20524;-77
2023/10/25 06:06:51;;;;;;;33.95;19.08;;;;;;;9.26;100.00;99071.97;5067002;28;20130;-77
2023/10/25 06:09:19;;;;;;;35.10;18.65;;;;;;;9.35;100.00;99081.97;5052541;28;20044;-77
2023/10/25 06:11:48;;;;;;;31.40;19.05;;;;;;;9.34;100.00;99074.13;5044870;28;20058;-75
2023/10/25 06:14:16;;;;;;;31.67;18.27;;;;;;;9.36;100.00;99075.75;5064556;28;20463;-77
2023/10/25 06:16:45;;;;;;;32.22;18.33;;;;;;;9.34;100.00;99074.97;5066958;28;20183;-75
2023/10/25 06:19:16;;;;;;;27.40;17.23;;;;;;;9.33;100.00;99080.34;5067145;28;20048;-75
2023/10/25 06:21:48;;;;;;;27.65;18.38;;;;;;;9.31;100.00;99079.59;5061441;28;20059;-75
2023/10/25 06:24:18;;;;;;;29.48;16.92;;;;;;;9.25;100.00;99064.16;5067454;28;20041;-75
2023/10/25 06:26:47;;;;;;;30.85;17.60;;;;;;;9.28;100.00;99075.38;5070795;28;20044;-75
2023/10/25 06:29:18;;;;;;;30.55;18.58;;;;;;;9.28;100.00;99064.81;5070890;28;20056;-75
2023/10/25 06:31:51;;;;;;;32.75;18.73;;;;;;;9.26;100.00;99069.34;5045815;28;20068;-76
2023/10/25 06:34:20;;;;;;;30.67;17.63;;;;;;;9.26;100.00;99071.97;5058336;28;20062;-77
2023/10/25 06:36:52;;;;;;;31.27;17.80;;;;;;;9.21;100.00;99050.28;5066156;28;20053;-76
2023/10/25 06:39:22;;;;;;;30.85;17.75;;;;;;;9.31;100.00;99061.97;5071272;28;20451;-76
2023/10/25 06:41:51;;;;;;;34.83;18.70;;;;;;;9.34;100.00;99059.13;5060583;28;20048;-76
2023/10/25 06:44:19;;;;;;;30.55;17.50;;;;;;;9.39;100.00;99059.69;5063133;28;20060;-77
2023/10/25 06:46:49;;;;;;;28.45;16.90;;;;;;;9.40;100.00;99058.75;5085542;28;20049;-76
2023/10/25 06:49:20;;;;;;;32.50;19.48;;;;;;;9.40;100.00;99053.47;5070144;28;20044;-76
2023/10/25 06:51:51;;;;;;;34.58;20.45;;;;;;;9.40;100.00;99039.41;5046029;28;20366;-76
2023/10/25 06:54:20;;;;;;;37.55;20.35;;;;;;;9.41;100.00;99039.31;5037855;28;20048;-76
2023/10/25 06:56:49;;;;;;;38.38;20.55;;;;;;;9.42;100.00;99038.38;5074746;28;20056;-76
2023/10/25 06:59:18;;;;;;;36.92;20.65;;;;;;;9.45;100.00;99042.59;5070976;28;20041;-76
2023/10/25 07:01:53;;;;;;;35.72;20.00;;;;;;;9.38;100.00;99034.22;5053973;28;20064;-76
2023/10/25 07:04:24;;;;;;;33.03;19.40;;;;;;;9.42;100.00;99041.00;5066991;28;20056;-75
2023/10/25 07:06:55;;;;;;;33.90;19.55;;;;;;;9.30;100.00;99011.88;5063168;28;20055;-77
2023/10/25 07:09:25;;;;;;;37.00;20.65;;;;;;;9.49;100.00;99030.88;5065332;28;20056;-76
2023/10/25 07:11:54;;;;;;;34.80;19.88;;;;;;;9.44;100.00;99022.44;5058229;28;20056;-75
2023/10/25 07:14:23;;;;;;;34.10;19.73;;;;;;;9.58;100.00;99021.53;5068488;28;20102;-75
2023/10/25 07:16:51;;;;;;;31.65;18.42;;;;;;;9.57;100.00;99019.84;5053857;28;20056;-74
2023/10/25 07:19:19;;;;;;;29.55;16.98;;;;;;;9.56;100.00;99012.84;5069306;28;20064;-76
2023/10/25 07:21:48;;;;;;;30.50;16.30;;;;;;;9.52;100.00;98993.69;5061188;28;20056;-75
2023/10/25 07:24:22;;;;;;;25.40;15.27;;;;;;;9.53;100.00;98999.84;5070127;28;20055;-76
2023/10/25 07:26:50;;;;;;;21.60;14.20;;;;;;;9.47;100.00;99001.06;5066836;28;20292;-76
2023/10/25 07:29:18;;;;;;;21.27;13.68;;;;;;;9.40;100.00;98984.78;5052636;28;20056;-75
2023/10/25 07:31:46;;;;;;;21.10;13.38;;;;;;;9.48;100.00;98984.25;5056918;28;20487;-75
2023/10/25 07:34:15;;;;;;;18.73;13.02;;;;;;;9.57;100.00;98985.47;5070586;28;20045;-75
2023/10/25 07:36:43;;;;;;;19.23;13.85;;;;;;;9.70;100.00;98975.78;5062484;28;20040;-75
2023/10/25 07:39:15;;;;;;;19.13;12.63;;;;;;;9.64;100.00;98958.53;5038171;28;20122;-75
2023/10/25 07:41:51;;;;;;;20.13;11.82;;;;;;;9.66;100.00;98975.13;5046739;28;20415;-75
2023/10/25 07:44:20;;;;;;;17.77;12.40;;;;;;;9.62;100.00;98983.38;5053825;28;20049;-75
2023/10/25 07:46:49;;;;;;;17.90;12.48;;;;;;;9.48;100.00;98966.63;5094842;28;20049;-77
2023/10/25 07:49:19;;;;;;;16.15;11.07;;;;;;;9.57;100.00;98969.63;5072623;28;20045;-77
2023/10/25 07:51:47;;;;;;;14.32;10.50;;;;;;;9.54;100.00;98967.19;5065827;28;20115;-75
2023/10/25 07:54:17;;;;;;;16.92;11.27;;;;;;;9.44;100.00;98959.00;5054316;28;20045;-76
2023/10/25 07:56:45;;;;;;;15.38;11.13;;;;;;;9.47;100.00;98964.06;5068167;28;20037;-75
2023/10/25 07:59:36;;;;;;;12.70;10.02;;;;;;;9.49;100.00;98957.75;5078465;28;20040;-75
2023/10/25 08:02:05;;;;;;;16.77;11.88;;;;;;;9.46;100.00;98951.81;5067025;28;20279;-76
2023/10/25 08:04:35;;;;;;;15.25;11.18;;;;;;;9.43;100.00;98946.75;5074762;28;20075;-75
2023/10/25 08:07:03;;;;;;;15.15;11.30;;;;;;;9.39;100.00;98945.25;5051877;28;20132;-76
2023/10/25 08:09:32;;;;;;;15.85;11.93;;;;;;;9.44;100.00;98959.84;5062603;28;20075;-72
2023/10/25 08:12:04;;;;;;;17.52;12.95;;;;;;;9.43;100.00;98957.31;5056844;28;20135;-75
2023/10/25 08:14:37;;;;;;;17.75;12.75;;;;;;;9.24;100.00;98951.53;5060537;28;20049;-77
2023/10/25 08:17:36;;;;;;;17.85;12.30;;;;;;;9.02;100.00;98942.31;5098713;27;24567;-75
2023/10/25 08:20:06;;;;;;;17.95;11.80;;;;;;;9.01;100.00;98950.34;5090728;28;20070;-76
2023/10/25 08:22:35;;;;;;;16.73;11.75;;;;;;;8.98;100.00;98945.25;5058809;28;20048;-77
2023/10/25 08:25:08;;;;;;;18.55;11.35;;;;;;;9.04;100.00;98939.59;5084998;28;20382;-76
2023/10/25 08:27:38;;;;;;;17.77;11.30;;;;;;;9.10;100.00;98944.47;5068543;28;20076;-76
2023/10/25 08:30:08;;;;;;;16.63;11.13;;;;;;;9.14;100.00;98949.44;5082648;28;20072;-76
2023/10/25 08:32:40;;;;;;;16.25;11.82;;;;;;;9.20;100.00;98934.16;5081444;28;20050;-76
2023/10/25 08:35:11;;;;;;;17.40;12.25;;;;;;;9.30;100.00;98938.75;5054899;28;20102;-77
2023/10/25 08:37:39;;;;;;;17.30;11.70;;;;;;;9.28;100.00;98923.97;5062212;28;20516;-76
2023/10/25 08:40:11;;;;;;;19.67;12.35;;;;;;;9.41;100.00;98938.91;5079856;28;20051;-76
2023/10/25 08:42:47;;;;;;;17.63;12.65;;;;;;;9.44;100.00;98930.75;5052409;28;20052;-76
2023/10/25 08:45:16;;;;;;;20.80;13.30;;;;;;;9.44;100.00;98922.84;5105360;28;20059;-77
2023/10/25 08:47:50;;;;;;;20.98;13.32;;;;;;;9.42;100.00;98914.19;5088457;28;20051;-77
2023/10/25 08:50:20;;;;;;;18.83;12.90;;;;;;;9.39;100.00;98903.81;5083144;28;20056;-77
2023/10/25 08:52:50;;;;;;;18.08;13.23;;;;;;;9.43;100.00;98897.41;5081133;28;20412;-77
2023/10/25 08:55:21;;;;;;;20.02;13.98;;;;;;;9.58;100.00;98899.97;5070061;28;20056;-77
2023/10/25 08:57:56;;;;;;;21.42;15.18;;;;;;;9.68;100.00;98893.94;5067663;28;20520;-77
2023/10/25 09:00:28;;;;;;;20.83;14.73;;;;;;;9.92;100.00;98898.53;5083689;28;20063;-77
2023/10/25 09:03:49;;;;;;;19.63;13.98;;;;;;;10.05;100.00;98870.31;5077747;28;20544;-77
2023/10/25 09:06:24;;;;;;;18.90;13.60;;;;;;;10.15;100.00;98850.19;5009633;28;20053;-77
2023/10/25 09:09:02;;;;;;;20.13;14.60;;;;;;;10.32;100.00;98852.53;5002982;28;20082;-76
2023/10/25 09:11:41;;;;;;;18.58;13.63;;;;;;;10.52;100.00;98856.44;5035584;28;20044;-76
2023/10/25 09:14:10;;;;;;;18.55;13.25;;;;;;;10.66;100.00;98829.81;5081497;28;20049;-77
2023/10/25 09:16:41;;;;;;;16.80;12.70;;;;;;;10.72;100.00;98815.28;5088913;28;20083;-77
2023/10/25 09:19:12;;;;;;;17.02;12.35;;;;;;;10.83;100.00;98810.91;5089987;28;20056;-76
2023/10/25 09:21:41;;;;;;;17.55;12.43;;;;;;;10.90;100.00;98822.72;5083804;28;20044;-76
2023/10/25 09:24:10;;;;;;;17.02;11.85;;;;;;;10.98;100.00;98834.56;5076759;28;20504;-75
2023/10/25 09:26:40;;;;;;;16.90;11.73;;;;;;;11.07;100.00;98829.44;5083807;28;20044;-76
2023/10/25 09:29:11;;;;;;;20.20;11.70;;;;;;;11.13;100.00;98809.59;5069513;28;20076;-77
2023/10/25 09:31:39;;;;;;;15.95;11.73;;;;;;;11.24;100.00;98809.63;5073593;28;20048;-76
2023/10/25 09:34:09;;;;;;;17.55;10.70;;;;;;;11.29;100.00;98818.09;5071867;28;20059;-76
2023/10/25 09:36:40;;;;;;;17.23;11.67;;;;;;;11.29;100.00;98811.97;5063092;28;20056;-77
2023/10/25 09:39:10;;;;;;;17.83;12.13;;;;;;;11.28;100.00;98807.63;5069545;28;20060;-76
2023/10/25 09:41:39;;;;;;;16.05;11.27;;;;;;;11.22;100.00;98809.75;5077503;28;20045;-76
2023/10/25 09:44:18;;;;;;;15.90;11.65;;;;;;;11.11;100.00;98782.38;5065783;28;20051;-77
2023/10/25 09:46:47;;;;;;;14.57;10.82;;;;;;;11.24;100.00;98794.59;5067934;28;20199;-76
2023/10/25 09:49:18;;;;;;;13.55;10.02;;;;;;;11.36;100.00;98792.81;5066420;28;20056;-77
2023/10/25 09:52:05;;;;;;;14.48;10.57;;;;;;;11.49;100.00;98793.56;5064330;28;20049;-76
2023/10/25 09:54:35;;;;;;;15.98;11.40;;;;;;;11.60;100.00;98779.50;5078215;28;20675;-77
2023/10/25 09:57:04;;;;;;;13.75;10.10;;;;;;;11.65;100.00;98776.53;5080021;28;20049;-76
2023/10/25 09:59:33;;;;;;;15.98;10.50;;;;;;;11.68;100.00;98784.22;5070623;28;20075;-77
2023/10/25 10:02:07;;;;;;;14.35;10.02;;;;;;;11.69;100.00;98777.94;5060928;28;20127;-78
2023/10/25 10:04:44;;;;;;;13.48;10.48;;;;;;;11.62;100.00;98766.16;5052215;28;20353;-78
2023/10/25 10:07:26;;;;;;;13.20;9.60;;;;;;;11.68;100.00;98771.81;5074881;28;20391;-77
2023/10/25 10:10:02;;;;;;;14.48;9.65;;;;;;;11.69;100.00;98768.19;5073774;28;20056;-78
2023/10/25 10:12:31;;;;;;;16.80;9.68;;;;;;;11.72;100.00;98760.00;5067222;28;20045;-77
2023/10/25 10:14:59;;;;;;;12.13;9.73;;;;;;;11.70;100.00;98759.28;5069748;28;20071;-76
2023/10/25 10:17:35;;;;;;;14.20;9.88;;;;;;;11.69;100.00;98746.13;5065649;28;20843;-78
2023/10/25 10:20:06;;;;;;;14.32;10.23;;;;;;;11.72;100.00;98759.16;5067097;28;20048;-77
2023/10/25 10:22:35;;;;;;;12.88;9.48;;;;;;;11.65;100.00;98748.16;5064812;28;20063;-76
2023/10/25 10:25:06;;;;;;;16.52;11.05;;;;;;;11.63;100.00;98757.22;5068749;28;20400;-75
2023/10/25 10:28:04;;;;;;;13.70;10.88;;;;;;;11.55;100.00;98741.91;5049301;28;20049;-76
2023/10/25 10:30:39;;;;;;;12.43;9.82;;;;;;;11.51;100.00;98735.13;5065252;28;20044;-77
2023/10/25 10:33:09;;;;;;;17.17;10.93;;;;;;;11.52;100.00;98723.56;5060132;28;20047;-77
2023/10/25 10:35:46;;;;;;;13.05;10.15;;;;;;;11.59;100.00;98725.66;5073826;28;20052;-76
2023/10/25 10:38:16;;;;;;;14.13;10.25;;;;;;;11.63;100.00;98712.16;5072728;28;20056;-77
2023/10/25 10:40:50;;;;;;;15.55;11.10;;;;;;;11.67;100.00;98709.13;5051120;28;20063;-77
2023/10/25 10:43:20;;;;;;;15.20;11.25;;;;;;;11.61;100.00;98701.66;5057795;28;20068;-76
2023/10/25 10:45:53;;;;;;;15.52;11.30;;;;;;;11.59;100.00;98699.13;5072862;28;20248;-76
2023/10/25 10:48:33;;;;;;;14.07;11.18;;;;;;;11.59;100.00;98690.34;5066678;28;20052;-77
2023/10/25 10:51:02;;;;;;;17.42;13.07;;;;;;;11.56;100.00;98691.41;5071038;28;20044;-76
2023/10/25 10:53:31;;;;;;;14.98;11.25;;;;;;;11.46;100.00;98669.25;5061889;28;20063;-75
2023/10/25 10:56:00;;;;;;;15.87;12.20;;;;;;;11.54;100.00;98673.94;5071610;28;20044;-74
2023/10/25 10:58:31;;;;;;;18.17;12.38;;;;;;;11.54;100.00;98676.59;5070832;28;20451;-72
2023/10/25 11:01:00;;;;;;;17.10;12.40;;;;;;;11.51;100.00;98661.75;5066038;28;20607;-73
2023/10/25 11:03:29;;;;;;;20.40;13.00;;;;;;;11.51;100.00;98648.50;5078223;28;20047;-72
2023/10/25 11:05:58;;;;;;;24.38;13.48;;;;;;;11.47;100.00;98635.63;5055030;28;20503;-73
2023/10/25 11:08:27;;;;;;;18.50;13.53;;;;;;;11.50;100.00;98628.25;5064087;28;20052;-73
2023/10/25 11:10:57;;;;;;;18.67;13.27;;;;;;;11.51;100.00;98621.16;5068744;28;21076;-73
2023/10/25 11:13:28;;;;;;;16.60;12.13;;;;;;;11.43;100.00;98605.03;5056555;28;20080;-73
2023/10/25 11:16:08;;;;;;;20.25;13.07;;;;;;;11.41;100.00;98606.94;5057921;28;20432;-72
2023/10/25 11:18:37;;;;;;;;;;;;;;;11.40;100.00;98600.81;5063687;28;20057;-72
2023/10/25 11:21:06;;;;;;;18.65;11.98;;;;;;;11.42;100.00;98593.59;5068161;28;19927;-73
2023/10/25 11:23:35;;;;;;;16.92;11.98;;;;;;;11.37;100.00;98571.88;5060474;28;20080;-72
2023/10/25 11:26:05;;;;;;;18.35;12.20;;;;;;;11.33;100.00;98553.72;5065840;28;20044;-72
2023/10/25 11:28:34;;;;;;;14.63;10.93;;;;;;;11.42;100.00;98567.09;5066046;28;20064;-71
2023/10/25 11:31:03;;;;;;;18.58;12.30;;;;;;;11.48;100.00;98566.59;5059594;28;20036;-71